Time;durP1;ratioP1;P1;durP2;ratioP2;P2;SDS_P1;SDS_P2;PMS_P1;PMS_P2;Temp;Humidity;BMP_temperature;BMP_pressure;BME280_temperature;BME280_humidity;BME280_pressure;Samples;Min_cycle;Max_cycle;Signal;HPM_P1;HPM_P2
2023/05/22 00:02:08;;;;;;;;;;;;;;;20.46;49.69;95252.69;10241151;28;2008;-69
2023/05/22 00:07:09;;;;;;;;;;;;;;;20.46;49.67;95250.88;10238375;28;1987;-70
2023/05/22 00:12:09;;;;;;;;;;;;;;;20.46;49.75;95258.75;10243270;28;1971;-71
2023/05/22 00:17:13;;;;;;;;;;;;;;;20.46;49.50;95255.34;10238700;28;2024;-71
2023/05/22 00:22:13;;;;;;;;;;;;;;;20.46;49.78;95250.88;10238784;28;1824;-70
2023/05/22 00:27:14;;;;;;;;;;;;;;;20.45;49.62;95257.19;10231301;28;2039;-71
2023/05/22 00:32:14;;;;;;;;;;;;;;;20.45;49.66;95248.50;10245063;28;1843;-71
2023/05/22 00:37:14;;;;;;;;;;;;;;;20.45;49.76;95251.13;10247206;28;2075;-71
2023/05/22 00:42:14;;;;;;;;;;;;;;;20.45;49.50;95251.13;10246988;28;4426;-71
2023/05/22 00:47:15;;;;;;;;;;;;;;;20.45;49.59;95251.91;10244296;28;1932;-71
2023/05/22 00:52:16;;;;;;;;;;;;;;;20.45;49.62;95245.84;10240326;28;2075;-71
2023/05/22 00:57:16;;;;;;;;;;;;;;;20.45;49.38;95246.66;10247835;28;1902;-70
2023/05/22 01:02:17;;;;;;;;;;;;;;;20.44;49.67;95242.47;10248926;28;1912;-70
2023/05/22 01:07:17;;;;;;;;;;;;;;;20.45;49.68;95251.13;10244431;28;2191;-70
2023/05/22 01:12:17;;;;;;;;;;;;;;;20.45;49.54;95256.38;10242409;28;1985;-71
2023/05/22 01:17:39;;;;;;;;;;;;;;;20.45;49.54;95259.81;10245908;28;1948;-71
2023/05/22 01:22:48;;;;;;;;;;;;;;;20.44;49.39;95263.53;10246203;28;1959;-70
2023/05/22 01:27:55;;;;;;;;;;;;;;;20.44;49.48;95265.38;10233385;28;1966;-71
2023/05/22 01:32:56;;;;;;;;;;;;;;;20.45;49.18;95266.91;10240535;28;1965;-71
2023/05/22 01:37:56;;;;;;;;;;;;;;;20.41;49.11;95264.06;10244612;28;1969;-71
2023/05/22 01:42:56;;;;;;;;;;;;;;;20.43;49.37;95269.84;10241953;28;4410;-71
2023/05/22 01:47:57;;;;;;;;;;;;;;;20.44;49.20;95273.25;10229471;28;2052;-71
2023/05/22 01:53:10;;;;;;;;;;;;;;;20.42;49.25;95270.94;10245158;28;2000;-70
2023/05/22 01:58:10;;;;;;;;;;;;;;;20.43;49.16;95274.31;10240921;28;2205;-71
2023/05/22 02:03:15;;;;;;;;;;;;;;;20.42;49.23;95270.94;10245084;28;1991;-71
2023/05/22 02:08:15;;;;;;;;;;;;;;;20.42;49.21;95278.81;10221990;29;2475;-71
2023/05/22 02:13:15;;;;;;;;;;;;;;;20.42;49.32;95278.81;10244159;28;2503;-71
2023/05/22 02:18:16;;;;;;;;;;;;;;;20.41;48.96;95273.81;10236181;28;2239;-71
2023/05/22 02:23:16;;;;;;;;;;;;;;;20.42;49.17;95278.81;10240385;28;2103;-70
2023/05/22 02:28:16;;;;;;;;;;;;;;;20.41;49.17;95274.59;10239593;28;2103;-70
2023/05/22 02:33:17;;;;;;;;;;;;;;;20.42;49.13;95270.13;10245563;28;2202;-70
2023/05/22 02:38:17;;;;;;;;;;;;;;;20.42;48.94;95268.28;10238531;28;1999;-70
2023/05/22 02:43:17;;;;;;;;;;;;;;;20.42;48.96;95276.19;10239649;28;4426;-70
2023/05/22 02:48:18;;;;;;;;;;;;;;;20.43;49.25;95269.06;10240262;28;1988;-70
2023/05/22 02:53:19;;;;;;;;;;;;;;;20.42;49.05;95268.28;10239573;28;1969;-70
2023/05/22 02:58:20;;;;;;;;;;;;;;;20.41;49.06;95269.34;10238535;28;1983;-70
2023/05/22 03:03:20;;;;;;;;;;;;;;;20.42;48.88;95273.56;10241131;28;1990;-70
2023/05/22 03:08:20;;;;;;;;;;;;;;;20.42;48.95;95278.81;10244232;28;2230;-70
2023/05/22 03:13:20;;;;;;;;;;;;;;;20.42;49.09;95284.09;10239901;28;2006;-70
2023/05/22 03:18:21;;;;;;;;;;;;;;;20.42;48.85;95281.44;10240410;28;1913;-70
2023/05/22 03:23:21;;;;;;;;;;;;;;;20.42;48.81;95284.09;10238231;29;2162;-70
2023/05/22 03:28:21;;;;;;;;;;;;;;;20.41;48.97;95287.78;10240882;28;1996;-70
2023/05/22 03:33:21;;;;;;;;;;;;;;;20.42;49.09;95283.28;10242466;28;1869;-69
2023/05/22 03:38:22;;;;;;;;;;;;;;;20.41;49.18;95285.13;10242197;28;1406;-70
2023/05/22 03:43:22;;;;;;;;;;;;;;;20.42;48.83;95297.25;10239896;28;4417;-70
2023/05/22 03:48:22;;;;;;;;;;;;;;;20.43;49.05;95295.38;10243176;28;1915;-70
2023/05/22 03:53:22;;;;;;;;;;;;;;;20.42;48.87;95299.88;10241558;28;1946;-70
2023/05/22 03:58:26;;;;;;;;;;;;;;;20.41;48.78;95300.94;10241876;28;1932;-70
2023/05/22 04:03:26;;;;;;;;;;;;;;;20.43;48.76;95305.91;10241932;28;1881;-70
2023/05/22 04:08:27;;;;;;;;;;;;;;;20.40;49.01;95302.00;10245042;28;1911;-70
2023/05/22 04:13:27;;;;;;;;;;;;;;;20.42;48.83;95310.41;10240542;28;1949;-70
2023/05/22 04:18:27;;;;;;;;;;;;;;;20.41;48.87;95308.84;10242450;28;1991;-70
2023/05/22 04:23:28;;;;;;;;;;;;;;;20.41;48.77;95308.03;10237698;28;2101;-70
2023/05/22 04:28:29;;;;;;;;;;;;;;;20.42;48.74;95305.16;10239374;28;1925;-70
2023/05/22 04:33:33;;;;;;;;;;;;;;;20.42;48.72;95314.88;10239208;28;1964;-70
2023/05/22 04:38:35;;;;;;;;;;;;;;;20.43;48.83;95311.19;10239734;28;1978;-70
2023/05/22 04:43:37;;;;;;;;;;;;;;;20.42;48.85;95315.69;10236149;28;4515;-70
2023/05/22 04:48:39;;;;;;;;;;;;;;;20.42;48.90;95318.31;10239514;28;1977;-70
2023/05/22 04:53:39;;;;;;;;;;;;;;;20.43;48.87;95319.88;10241388;28;1980;-70
2023/05/22 04:58:39;;;;;;;;;;;;;;;20.43;48.90;95314.59;10237911;28;1924;-70
2023/05/22 05:03:39;;;;;;;;;;;;;;;20.43;48.81;95321.69;10239660;28;1964;-70
2023/05/22 05:08:42;;;;;;;;;;;;;;;20.43;48.92;95321.69;10238610;28;2027;-69
2023/05/22 05:13:43;;;;;;;;;;;;;;;20.44;48.87;95313.53;10239026;28;2118;-70
2023/05/22 05:18:43;;;;;;;;;;;;;;;20.44;48.80;95315.38;10247557;28;1893;-70
2023/05/22 05:23:43;;;;;;;;;;;;;;;20.45;48.64;95324.84;10246712;28;1905;-70
2023/05/22 05:28:44;;;;;;;;;;;;;;;20.43;48.83;95324.34;10239248;28;1973;-70
2023/05/22 05:33:44;;;;;;;;;;;;;;;20.44;48.84;95324.06;10247950;28;2047;-69
2023/05/22 05:38:44;;;;;;;;;;;;;;;20.44;48.64;95331.97;10248181;28;1945;-70
2023/05/22 05:43:45;;;;;;;;;;;;;;;20.44;48.80;95331.97;10248503;28;4414;-70
2023/05/22 05:48:45;;;;;;;;;;;;;;;20.46;48.79;95336.94;10245052;28;1936;-69
2023/05/22 05:53:45;;;;;;;;;;;;;;;20.45;48.59;95336.16;10247096;28;1924;-73
2023/05/22 05:58:46;;;;;;;;;;;;;;;20.45;48.86;95338.00;10244287;28;1929;-71
2023/05/22 06:03:46;;;;;;;;;;;;;;;20.46;48.92;95340.38;10245169;28;1964;-69
2023/05/22 06:08:46;;;;;;;;;;;;;;;20.47;48.83;95341.94;10242210;28;2017;-66
2023/05/22 06:13:47;;;;;;;;;;;;;;;20.49;49.30;95339.00;10237221;28;2002;-65
2023/05/22 06:18:48;;;;;;;;;;;;;;;20.49;49.27;95345.06;10238359;28;1938;-64
2023/05/22 06:23:48;;;;;;;;;;;;;;;20.52;49.55;95339.25;10244378;28;1866;-64
2023/05/22 06:28:50;;;;;;;;;;;;;;;20.56;49.97;95334.97;10234822;28;2100;-67
2023/05/22 06:33:50;;;;;;;;;;;;;;;20.57;50.26;95335.75;10238212;28;1865;-70
2023/05/22 06:38:53;;;;;;;;;;;;;;;20.59;50.30;95337.03;10240720;28;1934;-71
2023/05/22 06:43:53;;;;;;;;;;;;;;;20.64;50.35;95344.09;10239128;28;4401;-65
2023/05/22 06:48:54;;;;;;;;;;;;;;;20.64;50.46;95344.09;10240451;28;1941;-68
2023/05/22 06:53:55;;;;;;;;;;;;;;;20.64;50.93;95350.16;10239443;28;1999;-63
2023/05/22 06:58:55;;;;;;;;;;;;;;;20.64;51.06;95342.25;10230616;28;1968;-62
2023/05/22 07:04:03;;;;;;;;;;;;;;;20.66;50.82;95347.22;10235603;28;2028;-61
2023/05/22 07:09:04;;;;;;;;;;;;;;;20.66;51.11;95353.28;10236518;28;1968;-61
2023/05/22 07:14:05;;;;;;;;;;;;;;;20.68;51.25;95350.34;10232442;28;1977;-59
2023/05/22 07:19:05;;;;;;;;;;;;;;;20.70;51.07;95354.28;10237158;28;1918;-59
2023/05/22 07:24:08;;;;;;;;;;;;;;;20.69;51.12;95357.97;10237602;28;1964;-63
2023/05/22 07:29:08;;;;;;;;;;;;;;;20.70;50.96;95358.75;10233454;28;2154;-64
2023/05/22 07:34:09;;;;;;;;;;;;;;;20.70;50.86;95358.75;10226393;28;1981;-63
2023/05/22 07:39:09;;;;;;;;;;;;;;;20.69;50.73;95352.69;10231041;28;1944;-63
2023/05/22 07:44:09;;;;;;;;;;;;;;;20.70;50.64;95356.13;10232338;29;4393;-63
2023/05/22 07:49:10;;;;;;;;;;;;;;;20.69;50.89;95357.97;10231814;28;2012;-63
2023/05/22 07:54:10;;;;;;;;;;;;;;;20.71;51.07;95358.47;10237141;28;1937;-63
2023/05/22 07:59:11;;;;;;;;;;;;;;;20.71;51.11;95352.44;10238094;28;1965;-63
2023/05/22 08:04:11;;;;;;;;;;;;;;;20.71;51.10;95360.34;10231884;28;2001;-63
2023/05/22 08:09:11;;;;;;;;;;;;;;;20.71;51.00;95363.72;10236037;28;1976;-64
2023/05/22 08:14:11;;;;;;;;;;;;;;;20.69;51.28;95367.75;10238736;28;1998;-63
2023/05/22 08:19:12;;;;;;;;;;;;;;;20.69;51.06;95368.50;10241998;28;1874;-63
2023/05/22 08:24:12;;;;;;;;;;;;;;;20.69;50.88;95365.09;10241590;28;2013;-63
2023/05/22 08:29:13;;;;;;;;;;;;;;;20.69;50.79;95352.69;10232625;28;1915;-63
2023/05/22 08:34:13;;;;;;;;;;;;;;;20.70;50.90;95348.22;10233513;28;1978;-63
2023/05/22 08:39:13;;;;;;;;;;;;;;;20.69;51.04;95342.16;10234675;28;2007;-63
2023/05/22 08:44:13;;;;;;;;;;;;;;;20.71;50.88;95347.16;10231815;28;4537;-63
2023/05/22 08:49:14;;;;;;;;;;;;;;;20.69;50.91;95331.63;10243388;28;1978;-63
2023/05/22 08:54:14;;;;;;;;;;;;;;;20.70;50.80;95337.69;10245354;28;2029;-64
2023/05/22 08:59:14;;;;;;;;;;;;;;;20.69;50.77;95339.53;10242716;28;2004;-63
2023/05/22 09:04:15;;;;;;;;;;;;;;;20.70;50.68;95342.94;10242823;28;1942;-63
2023/05/22 09:09:15;;;;;;;;;;;;;;;20.71;50.89;95339.25;10243651;29;1969;-63
2023/05/22 09:14:15;;;;;;;;;;;;;;;20.70;50.87;95338.47;10240140;28;1934;-62
2023/05/22 09:19:16;;;;;;;;;;;;;;;20.70;50.74;95341.09;10240776;28;2122;-62
2023/05/22 09:24:16;;;;;;;;;;;;;;;20.72;50.70;95338.19;10241755;28;1977;-62
2023/05/22 09:29:16;;;;;;;;;;;;;;;20.72;50.77;95338.19;10239402;28;1960;-62
2023/05/22 09:34:16;;;;;;;;;;;;;;;20.71;50.64;95340.03;10243123;28;1932;-63
2023/05/22 09:39:17;;;;;;;;;;;;;;;20.75;50.58;95342.91;10240647;28;1981;-63
2023/05/22 09:44:17;;;;;;;;;;;;;;;20.74;50.94;95339.47;10239744;28;4493;-63
2023/05/22 09:49:17;;;;;;;;;;;;;;;20.74;50.53;95334.19;10242918;28;1969;-63
2023/05/22 09:54:18;;;;;;;;;;;;;;;20.76;51.25;95349.72;10235954;28;1983;-63
2023/05/22 09:59:20;;;;;;;;;;;;;;;20.79;51.33;95346.53;10225571;28;2098;-65
2023/05/22 10:04:20;;;;;;;;;;;;;;;20.81;52.20;95339.88;10225826;28;2038;-66
2023/05/22 10:09:22;;;;;;;;;;;;;;;20.85;52.41;95345.38;10231257;28;2231;-66
2023/05/22 10:14:22;;;;;;;;;;;;;;;20.92;52.36;95345.81;10236970;28;2297;-64
2023/05/22 10:19:25;;;;;;;;;;;;;;;20.94;52.39;95339.19;10231556;28;2056;-65
2023/05/22 10:24:25;;;;;;;;;;;;;;;21.08;52.37;95340.06;10241095;28;1930;-64
2023/05/22 10:29:37;;;;;;;;;;;;;;;21.04;52.57;95336.44;10241143;28;1964;-65
2023/05/22 10:34:43;;;;;;;;;;;;;;;21.19;52.19;95335.41;10228517;28;2066;-65
2023/05/22 10:39:49;;;;;;;;;;;;;;;21.22;52.38;95339.34;10232405;28;4397;-64
2023/05/22 10:44:49;;;;;;;;;;;;;;;21.37;51.70;95333.84;10233735;28;1923;-65
2023/05/22 10:49:50;;;;;;;;;;;;;;;21.22;51.98;95328.81;10245572;28;1902;-64
2023/05/22 10:54:52;;;;;;;;;;;;;;;21.21;52.21;95329.84;10241210;28;1568;-65
2023/05/22 10:59:56;;;;;;;;;;;;;;;21.25;52.39;95333.47;10241575;28;1539;-65
2023/05/22 11:05:15;;;;;;;;;;;;;;;21.25;52.52;95320.31;10235319;28;1890;-65
2023/05/22 11:10:24;;;;;;;;;;;;;;;21.39;52.69;95319.28;10233463;28;2096;-65
2023/05/22 11:15:31;;;;;;;;;;;;;;;21.41;52.24;95319.78;10235528;28;2054;-65
2023/05/22 11:20:33;;;;;;;;;;;;;;;21.35;52.37;95312.25;10237723;28;1966;-65
2023/05/22 11:25:35;;;;;;;;;;;;;;;21.44;52.34;95313.16;10232765;28;1978;-65
2023/05/22 11:30:35;;;;;;;;;;;;;;;21.35;52.38;95307.00;10233800;28;2266;-64
2023/05/22 11:35:36;;;;;;;;;;;;;;;21.40;52.79;95317.44;10234527;28;1925;-65
2023/05/22 11:40:36;;;;;;;;;;;;;;;21.38;52.75;95309.03;10236393;28;4350;-63
2023/05/22 11:45:38;;;;;;;;;;;;;;;21.41;52.80;95311.09;10236142;28;2004;-65
2023/05/22 11:50:38;;;;;;;;;;;;;;;21.38;52.62;95301.13;10236293;28;1933;-65
2023/05/22 11:55:38;;;;;;;;;;;;;;;21.39;52.52;95292.16;10234547;28;1898;-64
2023/05/22 12:00:38;;;;;;;;;;;;;;;21.41;52.58;95296.03;10234732;28;1894;-64
2023/05/22 12:05:39;;;;;;;;;;;;;;;21.38;52.62;95296.63;10234098;28;2013;-64
2023/05/22 12:10:44;;;;;;;;;;;;;;;21.35;53.06;95293.81;10228227;28;2201;-64
2023/05/22 12:15:45;;;;;;;;;;;;;;;21.35;53.24;95288.53;10229924;28;2344;-64
2023/05/22 12:20:45;;;;;;;;;;;;;;;21.33;53.00;95295.94;10240619;28;1843;-65
2023/05/22 12:25:45;;;;;;;;;;;;;;;21.31;53.07;95283.03;10240150;28;2110;-66
2023/05/22 12:30:45;;;;;;;;;;;;;;;21.30;53.25;95278.06;10246645;28;1910;-66
2023/05/22 12:35:48;;;;;;;;;;;;;;;21.29;53.15;95277.28;10239928;28;1895;-65
2023/05/22 12:40:49;;;;;;;;;;;;;;;21.30;53.47;95278.84;10239860;28;4449;-65
2023/05/22 12:45:50;;;;;;;;;;;;;;;21.30;53.50;95264.88;10247525;28;1995;-63
2023/05/22 12:50:50;;;;;;;;;;;;;;;21.29;53.30;95269.34;10246134;28;1978;-63
2023/05/22 12:55:51;;;;;;;;;;;;;;;21.30;53.38;95268.31;10245431;28;1900;-65
2023/05/22 13:00:51;;;;;;;;;;;;;;;21.31;53.32;95264.56;10240959;28;1884;-65
2023/05/22 13:05:51;;;;;;;;;;;;;;;21.31;53.10;95254.03;10240632;28;2124;-64
2023/05/22 13:10:51;;;;;;;;;;;;;;;21.30;52.84;95251.69;10242626;28;1981;-65
2023/05/22 13:15:52;;;;;;;;;;;;;;;21.30;52.73;95251.69;10242716;28;1848;-65
2023/05/22 13:20:52;;;;;;;;;;;;;;;21.30;52.76;95241.16;10247480;28;1899;-65
2023/05/22 13:25:52;;;;;;;;;;;;;;;21.32;52.50;95241.63;10247205;28;1883;-65
2023/05/22 13:30:52;;;;;;;;;;;;;;;21.31;52.61;95237.47;10244991;28;1895;-65
2023/05/22 13:35:53;;;;;;;;;;;;;;;21.29;52.89;95236.97;10238034;28;1898;-65
2023/05/22 13:40:53;;;;;;;;;;;;;;;21.30;52.61;95233.25;10244633;28;4352;-65
2023/05/22 13:45:53;;;;;;;;;;;;;;;21.30;52.72;95233.25;10247763;28;1911;-65
2023/05/22 13:50:53;;;;;;;;;;;;;;;21.31;52.84;95237.47;10244712;28;1976;-65
2023/05/22 13:55:54;;;;;;;;;;;;;;;21.29;52.72;95235.09;10243230;28;1945;-66
2023/05/22 14:00:54;;;;;;;;;;;;;;;21.30;53.07;95233.25;10245019;28;2254;-66
2023/05/22 14:05:55;;;;;;;;;;;;;;;21.30;52.64;95227.97;10243372;28;1829;-65
2023/05/22 14:10:55;;;;;;;;;;;;;;;21.29;52.85;95232.44;10242407;28;1919;-66
2023/05/22 14:15:55;;;;;;;;;;;;;;;21.31;52.56;95226.91;10241730;28;1938;-64
2023/05/22 14:20:56;;;;;;;;;;;;;;;21.31;52.81;95213.72;10240304;28;1872;-64
2023/05/22 14:25:56;;;;;;;;;;;;;;;21.30;52.57;95212.94;10239454;28;1852;-64
2023/05/22 14:30:56;;;;;;;;;;;;;;;21.31;52.43;95219.00;10240751;29;1895;-64
2023/05/22 14:35:56;;;;;;;;;;;;;;;21.30;52.46;95214.78;10241922;28;1814;-65
2023/05/22 14:40:57;;;;;;;;;;;;;;;21.30;52.52;95220.84;10244475;28;4460;-65
2023/05/22 14:45:57;;;;;;;;;;;;;;;21.30;52.47;95233.25;10240108;28;1881;-65
2023/05/22 14:50:58;;;;;;;;;;;;;;;21.31;52.41;95237.47;10246414;28;1895;-65
2023/05/22 14:55:58;;;;;;;;;;;;;;;21.30;52.43;95243.78;10241922;28;2034;-67
2023/05/22 15:00:58;;;;;;;;;;;;;;;21.31;52.83;95235.59;10243165;28;1836;-65
2023/05/22 15:05:59;;;;;;;;;;;;;;;21.32;52.56;95244.28;10237846;28;1876;-65
2023/05/22 15:10:59;;;;;;;;;;;;;;;21.32;52.38;95239.00;10244509;28;1990;-65
2023/05/22 15:15:59;;;;;;;;;;;;;;;21.30;52.48;95236.66;10240245;28;1855;-65
2023/05/22 15:20:59;;;;;;;;;;;;;;;21.31;52.49;95242.72;10240575;28;1813;-66
2023/05/22 15:26:00;;;;;;;;;;;;;;;21.30;52.29;95247.22;10238855;28;1955;-65
2023/05/22 15:31:00;;;;;;;;;;;;;;;21.31;52.28;95242.72;10245809;28;1990;-64
2023/05/22 15:36:00;;;;;;;;;;;;;;;21.31;52.41;95248.00;10236635;28;1844;-66
2023/05/22 15:41:00;;;;;;;;;;;;;;;21.31;52.42;95242.72;10243580;28;4425;-65
2023/05/22 15:46:01;;;;;;;;;;;;;;;21.30;52.13;95243.78;10244078;28;1844;-66
2023/05/22 15:51:05;;;;;;;;;;;;;;;21.30;52.10;95230.59;10245481;28;1993;-67
2023/05/22 15:56:05;;;;;;;;;;;;;;;21.29;52.07;95221.91;10240900;28;1907;-66
2023/05/22 16:01:06;;;;;;;;;;;;;;;21.31;52.19;95232.19;10238476;29;1835;-66
2023/05/22 16:06:06;;;;;;;;;;;;;;;21.30;51.96;95228.75;10244658;28;1865;-65
2023/05/22 16:11:07;;;;;;;;;;;;;;;21.29;52.05;95229.06;10247560;28;1914;-66
2023/05/22 16:16:07;;;;;;;;;;;;;;;21.30;51.91;95225.34;10240820;28;1840;-66
2023/05/22 16:21:07;;;;;;;;;;;;;;;21.30;51.95;95223.50;10241496;28;1867;-66
2023/05/22 16:26:08;;;;;;;;;;;;;;;21.31;51.95;95216.38;10232369;28;2047;-69
2023/05/22 16:31:08;;;;;;;;;;;;;;;21.32;52.30;95218.69;10239879;28;1914;-67
2023/05/22 16:36:08;;;;;;;;;;;;;;;21.35;52.38;95217.34;10239431;28;2094;-70
2023/05/22 16:41:08;;;;;;;;;;;;;;;21.35;52.68;95217.34;10238100;28;4433;-68
2023/05/22 16:46:09;;;;;;;;;;;;;;;21.37;52.43;95210.69;10239855;28;1829;-69
2023/05/22 16:51:10;;;;;;;;;;;;;;;21.40;52.96;95217.25;10242323;28;2012;-68
2023/05/22 16:56:10;;;;;;;;;;;;;;;21.41;52.80;95210.91;10235000;28;1899;-67
2023/05/22 17:01:10;;;;;;;;;;;;;;;21.42;52.69;95212.47;10238657;28;1897;-68
2023/05/22 17:06:11;;;;;;;;;;;;;;;21.41;52.62;95211.66;10233630;28;1832;-66
2023/05/22 17:11:11;;;;;;;;;;;;;;;21.43;52.70;95200.84;10242739;28;1899;-68
2023/05/22 17:16:11;;;;;;;;;;;;;;;21.45;52.58;95206.63;10243654;28;1902;-63
2023/05/22 17:21:11;;;;;;;;;;;;;;;21.46;52.58;95203.69;10241599;28;1862;-67
2023/05/22 17:26:13;;;;;;;;;;;;;;;21.45;52.65;95211.88;10246030;28;1836;-67
2023/05/22 17:31:13;;;;;;;;;;;;;;;21.45;52.48;95210.00;10244100;29;1981;-66
2023/05/22 17:36:14;;;;;;;;;;;;;;;21.44;52.58;95210.31;10241825;28;2368;-67
2023/05/22 17:41:14;;;;;;;;;;;;;;;21.44;52.71;95210.31;10248709;28;4457;-67
2023/05/22 17:46:14;;;;;;;;;;;;;;;21.44;52.75;95223.50;10243022;28;2266;-66
2023/05/22 17:51:15;;;;;;;;;;;;;;;21.45;53.30;95230.34;10243677;28;1904;-66
2023/05/22 17:56:15;;;;;;;;;;;;;;;21.46;53.57;95223.97;10237838;28;2079;-69
2023/05/22 18:01:18;;;;;;;;;;;;;;;21.63;51.46;95218.94;10242209;29;1922;-67
2023/05/22 18:06:19;;;;;;;;;;;;;;;21.57;50.76;95220.88;10245535;28;1903;-68
2023/05/22 18:11:19;;;;;;;;;;;;;;;21.54;50.23;95223.31;10244652;28;1876;-75
2023/05/22 18:16:20;;;;;;;;;;;;;;;21.55;49.40;95227.53;10239500;28;1974;-68
2023/05/22 18:21:20;;;;;;;;;;;;;;;21.62;47.93;95227.91;10243264;28;1894;-68
2023/05/22 18:26:20;;;;;;;;;;;;;;;21.68;46.22;95230.16;10241913;28;1975;-67
2023/05/22 18:31:21;;;;;;;;;;;;;;;21.56;46.24;95229.06;10241328;29;1904;-68
2023/05/22 18:36:21;;;;;;;;;;;;;;;21.61;45.52;95242.97;10235854;28;1853;-68
2023/05/22 18:41:21;;;;;;;;;;;;;;;21.52;45.84;95243.91;10237341;28;2087;-68
2023/05/22 18:46:22;;;;;;;;;;;;;;;21.47;45.99;95249.28;10241363;28;1907;-67
2023/05/22 18:51:23;;;;;;;;;;;;;;;21.44;45.57;95258.56;10238632;28;1888;-68
2023/05/22 18:56:23;;;;;;;;;;;;;;;21.39;46.29;95255.25;10239091;28;1978;-67
2023/05/22 19:01:24;;;;;;;;;;;;;;;21.38;45.98;95264.22;10241099;28;1915;-68
2023/05/22 19:06:25;;;;;;;;;;;;;;;21.42;45.26;95270.47;10242676;28;1947;-68
2023/05/22 19:11:26;;;;;;;;;;;;;;;21.41;45.02;95274.19;10234443;28;1932;-67
2023/05/22 19:16:26;;;;;;;;;;;;;;;21.33;45.68;95280.13;10230734;28;1868;-67
2023/05/22 19:21:26;;;;;;;;;;;;;;;21.35;45.41;95291.16;10237601;28;1911;-68
2023/05/22 19:26:26;;;;;;;;;;;;;;;21.27;46.39;95283.91;10236591;28;1983;-68
2023/05/22 19:31:29;;;;;;;;;;;;;;;21.27;46.42;95289.19;10241793;28;1876;-67
2023/05/22 19:36:30;;;;;;;;;;;;;;;21.25;46.69;95294.72;10240551;28;2036;-67
2023/05/22 19:41:30;;;;;;;;;;;;;;;21.26;47.17;95304.22;10238840;28;4580;-68
2023/05/22 19:46:30;;;;;;;;;;;;;;;21.34;47.77;95308.03;10245525;28;1974;-69
2023/05/22 19:51:31;;;;;;;;;;;;;;;21.38;47.90;95324.84;10242561;28;1922;-70
2023/05/22 19:56:33;;;;;;;;;;;;;;;21.42;48.51;95323.19;10241210;28;1579;-68
2023/05/22 20:01:34;;;;;;;;;;;;;;;21.45;48.76;95327.91;10238665;28;2071;-68
2023/05/22 20:06:34;;;;;;;;;;;;;;;21.46;48.43;95330.25;10236634;28;1960;-67
2023/05/22 20:11:34;;;;;;;;;;;;;;;21.48;48.79;95327.31;10230991;28;1903;-66
2023/05/22 20:16:35;;;;;;;;;;;;;;;21.49;48.74;95328.91;10232821;28;2000;-67
2023/05/22 20:21:35;;;;;;;;;;;;;;;21.51;48.55;95332.81;10236816;28;1815;-67
2023/05/22 20:26:35;;;;;;;;;;;;;;;21.52;49.00;95334.38;10233941;28;1910;-65
2023/05/22 20:31:35;;;;;;;;;;;;;;;21.55;49.77;95343.56;10235414;28;1886;-68
2023/05/22 20:36:37;;;;;;;;;;;;;;;21.55;50.41;95338.28;10230795;28;2097;-68
2023/05/22 20:41:37;;;;;;;;;;;;;;;21.56;50.24;95337.19;10235832;28;4449;-68
2023/05/22 20:46:37;;;;;;;;;;;;;;;21.57;50.36;95341.41;10244644;28;1934;-68
2023/05/22 20:51:38;;;;;;;;;;;;;;;21.57;50.57;95341.41;10241782;28;1832;-69
2023/05/22 20:56:38;;;;;;;;;;;;;;;21.55;50.79;95338.28;10241410;28;1817;-68
2023/05/22 21:01:38;;;;;;;;;;;;;;;21.56;50.71;95339.84;10241445;28;1824;-67
2023/05/22 21:06:38;;;;;;;;;;;;;;;21.55;50.86;95343.56;10240332;28;2103;-68
2023/05/22 21:11:39;;;;;;;;;;;;;;;21.54;51.09;95334.88;10242176;28;2007;-67
2023/05/22 21:16:39;;;;;;;;;;;;;;;21.54;50.91;95336.72;10240799;28;1988;-67
2023/05/22 21:21:40;;;;;;;;;;;;;;;21.55;50.87;95346.19;10243531;28;1832;-67
2023/05/22 21:26:40;;;;;;;;;;;;;;;21.54;51.18;95331.44;10244446;28;1914;-68
2023/05/22 21:31:41;;;;;;;;;;;;;;;21.54;51.22;95326.94;10240930;28;2091;-68
2023/05/22 21:36:41;;;;;;;;;;;;;;;21.54;50.88;95339.34;10243709;28;1741;-68
2023/05/22 21:41:41;;;;;;;;;;;;;;;21.54;51.25;95339.34;10239263;28;4509;-68
2023/05/22 21:46:41;;;;;;;;;;;;;;;21.52;50.92;95344.91;10240119;28;1982;-68
2023/05/22 21:51:42;;;;;;;;;;;;;;;21.52;50.81;95337.00;10241552;28;1947;-68
2023/05/22 21:56:42;;;;;;;;;;;;;;;21.52;50.78;95344.91;10239312;28;1893;-68
2023/05/22 22:01:42;;;;;;;;;;;;;;;21.52;50.81;95344.91;10238017;28;2008;-68
2023/05/22 22:06:42;;;;;;;;;;;;;;;21.53;50.87;95343.06;10242885;28;1945;-68
2023/05/22 22:11:43;;;;;;;;;;;;;;;21.52;50.72;95333.56;10241256;28;1895;-68
2023/05/22 22:16:44;;;;;;;;;;;;;;;21.52;51.03;95337.00;10238571;28;2059;-68
2023/05/22 22:21:44;;;;;;;;;;;;;;;21.51;50.69;95326.75;10240933;28;1922;-68
2023/05/22 22:26:45;;;;;;;;;;;;;;;21.51;51.00;95332.81;10241534;28;2048;-68
2023/05/22 22:31:45;;;;;;;;;;;;;;;21.53;50.79;95345.72;10242589;28;1904;-68
2023/05/22 22:36:46;;;;;;;;;;;;;;;21.51;50.89;95346.00;10237925;28;1880;-68
2023/05/22 22:41:46;;;;;;;;;;;;;;;21.51;50.65;95343.38;10241284;28;4501;-68
2023/05/22 22:46:46;;;;;;;;;;;;;;;21.50;50.77;95344.44;10243114;28;1985;-68
2023/05/22 22:51:48;;;;;;;;;;;;;;;21.51;50.47;95342.56;10251853;28;1478;-67
2023/05/22 22:56:48;;;;;;;;;;;;;;;21.51;50.54;95345.22;10243411;28;1517;-67
2023/05/22 23:01:48;;;;;;;;;;;;;;;21.51;50.51;95343.38;10238666;28;1858;-68
2023/05/22 23:06:49;;;;;;;;;;;;;;;21.50;50.64;95347.06;10232865;28;1985;-68
2023/05/22 23:11:49;;;;;;;;;;;;;;;21.51;50.72;95363.69;10240503;29;1895;-68
2023/05/22 23:16:49;;;;;;;;;;;;;;;21.50;50.32;95357.59;10245857;28;1774;-68
2023/05/22 23:21:50;;;;;;;;;;;;;;;21.49;50.24;95358.69;10239650;28;1972;-68
2023/05/22 23:26:51;;;;;;;;;;;;;;;21.51;50.32;95359.19;10236869;28;1937;-68
2023/05/22 23:31:52;;;;;;;;;;;;;;;21.50;50.63;95362.09;10238867;28;1856;-68
2023/05/22 23:36:52;;;;;;;;;;;;;;;21.50;50.26;95359.47;10236445;28;1927;-67
2023/05/22 23:41:53;;;;;;;;;;;;;;;21.50;50.33;95359.47;10232917;28;4444;-68
2023/05/22 23:46:54;;;;;;;;;;;;;;;21.50;50.24;95359.47;10233321;28;1927;-67
2023/05/22 23:51:54;;;;;;;;;;;;;;;21.50;50.33;95367.38;10235519;28;1903;-67
2023/05/22 23:56:54;;;;;;;;;;;;;;;21.51;50.14;95379.50;10237205;28;1965;-68
